Time;durP1;ratioP1;P1;durP2;ratioP2;P2;SDS_P1;SDS_P2;PMS_P1;PMS_P2;Temp;Humidity;BMP_temperature;BMP_pressure;BME280_temperature;BME280_humidity;BME280_pressure;Samples;Min_cycle;Max_cycle;Signal;HPM_P1;HPM_P2
2022/10/11 00:02:16;;;;;;;18.77;9.30;;;;;;;;;;5134388;28;20421;-73
2022/10/11 00:04:42;;;;;;;17.33;8.07;;;;;;;;;;5134106;28;20975;-76
2022/10/11 00:07:08;;;;;;;18.87;8.50;;;;;;;;;;5134287;28;20952;-76
2022/10/11 00:09:34;;;;;;;17.40;9.00;;;;;;;;;;5134277;28;20928;-77
2022/10/11 00:12:00;;;;;;;13.53;7.40;;;;;;;;;;5134154;28;20509;-77
2022/10/11 00:14:26;;;;;;;14.37;8.80;;;;;;;;;;5134145;28;20466;-76
2022/10/11 00:16:52;;;;;;;17.30;9.30;;;;;;;;;;5115779;28;20517;-78
2022/10/11 00:19:18;;;;;;;18.47;8.60;;;;;;;;;;5134186;28;20410;-76
2022/10/11 00:21:44;;;;;;;13.00;8.67;;;;;;;;;;5134162;28;20437;-67
2022/10/11 00:24:10;;;;;;;13.53;8.60;;;;;;;;;;5134086;28;20417;-67
2022/10/11 00:26:36;;;;;;;17.17;8.27;;;;;;;;;;5134042;28;20416;-69
2022/10/11 00:29:03;;;;;;;14.63;9.50;;;;;;;;;;5115644;28;20413;-78
2022/10/11 00:31:28;;;;;;;11.40;8.07;;;;;;;;;;5134092;28;20404;-74
2022/10/11 00:33:55;;;;;;;16.23;7.83;;;;;;;;;;5133971;28;20471;-76
2022/10/11 00:36:21;;;;;;;19.23;7.10;;;;;;;;;;5134036;28;20426;-78
2022/10/11 00:38:47;;;;;;;14.43;7.90;;;;;;;;;;5134035;28;20404;-78
2022/10/11 00:41:14;;;;;;;13.10;7.13;;;;;;;;;;5133984;28;20465;-77
2022/10/11 00:43:40;;;;;;;17.80;7.83;;;;;;;;;;5134026;28;20454;-72
2022/10/11 00:46:24;;;;;;;18.03;7.83;;;;;;;;;;5133948;28;20885;-76
2022/10/11 00:48:53;;;;;;;17.87;8.60;;;;;;;;;;5134161;28;20506;-77
2022/10/11 00:51:22;;;;;;;11.60;7.30;;;;;;;;;;5133937;28;20866;-71
2022/10/11 00:53:49;;;;;;;17.93;8.40;;;;;;;;;;5133729;28;20472;-74
2022/10/11 00:56:26;;;;;;;11.57;8.50;;;;;;;;;;5133848;28;21037;-71
2022/10/11 00:58:53;;;;;;;14.53;7.50;;;;;;;;;;5133826;28;20408;-74
2022/10/11 01:01:19;;;;;;;10.73;7.60;;;;;;;;;;5134469;27;20448;-72
2022/10/11 01:03:45;;;;;;;10.20;8.10;;;;;;;;;;5137340;27;20496;-68
2022/10/11 01:06:11;;;;;;;17.40;7.63;;;;;;;;;;5137411;27;20427;-68
2022/10/11 01:08:38;;;;;;;27.43;7.93;;;;;;;;;;5119015;27;20922;-67
2022/10/11 01:11:04;;;;;;;19.90;7.53;;;;;;;;;;5137294;27;20413;-70
2022/10/11 01:13:49;;;;;;;12.80;7.60;;;;;;;;;;5118810;27;20990;-67
2022/10/11 01:16:25;;;;;;;12.93;6.77;;;;;;;;;;5137314;27;20425;-71
2022/10/11 01:19:14;;;;;;;7.87;7.13;;;;;;;;;;5137177;27;20398;-68
2022/10/11 01:21:40;;;;;;;18.80;8.77;;;;;;;;;;5126299;27;20437;-73
2022/10/11 01:24:25;;;;;;;13.43;7.80;;;;;;;;;;5137192;27;20438;-70
2022/10/11 01:26:59;;;;;;;10.50;7.40;;;;;;;;;;5137008;27;20406;-68
2022/10/11 01:29:49;;;;;;;11.23;7.90;;;;;;;;;;5136986;27;20408;-67
2022/10/11 01:32:38;;;;;;;7.80;7.00;;;;;;;;;;5126390;27;20421;-71
2022/10/11 01:35:04;;;;;;;11.37;7.20;;;;;;;;;;5126091;27;20497;-76
2022/10/11 01:37:32;;;;;;;16.77;7.60;;;;;;;;;;5118428;27;20414;-71
2022/10/11 01:40:02;;;;;;;9.20;6.60;;;;;;;;;;5118381;27;20504;-66
2022/10/11 01:42:28;;;;;;;10.27;6.97;;;;;;;;;;5136730;27;20446;-69
2022/10/11 01:44:54;;;;;;;10.20;7.60;;;;;;;;;;5136666;27;20958;-67
2022/10/11 01:47:21;;;;;;;8.43;6.50;;;;;;;;;;5136706;27;20400;-66
2022/10/11 01:49:57;;;;;;;16.70;6.80;;;;;;;;;;5118240;27;20413;-70
2022/10/11 01:52:25;;;;;;;20.37;7.60;;;;;;;;;;5136519;27;20408;-67
2022/10/11 01:55:09;;;;;;;15.80;7.73;;;;;;;;;;5118033;27;20876;-68
2022/10/11 01:57:45;;;;;;;15.20;7.63;;;;;;;;;;5118011;27;20783;-71
2022/10/11 02:00:25;;;;;;;10.33;6.93;;;;;;;;;;5136438;27;20880;-67
2022/10/11 02:03:10;;;;;;;21.47;7.23;;;;;;;;;;5117920;27;20410;-66
2022/10/11 02:05:45;;;;;;;15.27;6.87;;;;;;;;;;5136149;27;20479;-68
2022/10/11 02:08:17;;;;;;;16.40;8.00;;;;;;;;;;5136271;27;20889;-67
2022/10/11 02:10:46;;;;;;;11.30;7.17;;;;;;;;;;5136175;27;20465;-67
2022/10/11 02:13:18;;;;;;;13.27;8.10;;;;;;;;;;5116674;27;20514;-70
2022/10/11 02:15:45;;;;;;;19.00;7.47;;;;;;;;;;5136207;27;20418;-68
2022/10/11 02:18:16;;;;;;;17.67;7.53;;;;;;;;;;5136073;27;20872;-67
2022/10/11 02:20:43;;;;;;;14.50;7.53;;;;;;;;;;5135970;27;20437;-68
2022/10/11 02:23:11;;;;;;;14.50;7.97;;;;;;;;;;5135951;27;20401;-68
2022/10/11 02:25:37;;;;;;;13.43;6.70;;;;;;;;;;5135923;27;20413;-69
2022/10/11 02:28:07;;;;;;;13.10;7.33;;;;;;;;;;5135908;27;20408;-66
2022/10/11 02:30:34;;;;;;;13.90;7.37;;;;;;;;;;5135779;27;20412;-71
2022/10/11 02:33:02;;;;;;;21.10;8.00;;;;;;;;;;5117248;27;20513;-70
2022/10/11 02:35:28;;;;;;;10.10;6.50;;;;;;;;;;5135705;27;20409;-68
2022/10/11 02:38:08;;;;;;;12.57;7.40;;;;;;;;;;5135730;27;20401;-70
2022/10/11 02:40:37;;;;;;;21.40;7.80;;;;;;;;;;5117452;27;20497;-66
2022/10/11 02:43:09;;;;;;;10.13;7.10;;;;;;;;;;5136212;27;20458;-67
2022/10/11 02:45:37;;;;;;;10.30;7.40;;;;;;;;;;5135987;27;20437;-67
2022/10/11 02:48:04;;;;;;;8.50;7.27;;;;;;;;;;5136146;27;20945;-68
2022/10/11 02:50:30;;;;;;;13.03;6.80;;;;;;;;;;5136040;27;20425;-69
2022/10/11 02:52:56;;;;;;;10.30;7.67;;;;;;;;;;5135951;27;20411;-67
2022/10/11 02:55:22;;;;;;;16.67;7.70;;;;;;;;;;5117212;27;20447;-67
2022/10/11 02:57:48;;;;;;;11.20;7.53;;;;;;;;;;5135661;27;20502;-67
2022/10/11 03:00:14;;;;;;;11.80;7.20;;;;;;;;;;5135626;27;20468;-68
2022/10/11 03:02:40;;;;;;;13.40;8.20;;;;;;;;;;5135598;27;20409;-67
2022/10/11 03:05:06;;;;;;;12.80;7.60;;;;;;;;;;5135261;27;20468;-69
2022/10/11 03:07:32;;;;;;;16.93;7.87;;;;;;;;;;5135299;27;20884;-68
2022/10/11 03:09:58;;;;;;;14.27;7.20;;;;;;;;;;5116739;27;20479;-67
2022/10/11 03:12:24;;;;;;;16.07;7.50;;;;;;;;;;5116602;27;20966;-67
2022/10/11 03:14:50;;;;;;;18.27;7.40;;;;;;;;;;5134862;27;20545;-66
2022/10/11 03:17:16;;;;;;;14.53;7.63;;;;;;;;;;5116589;27;20434;-66
2022/10/11 03:19:42;;;;;;;17.93;8.20;;;;;;;;;;5134943;27;20410;-68
2022/10/11 03:22:08;;;;;;;13.37;8.37;;;;;;;;;;5116507;27;20426;-68
2022/10/11 03:24:33;;;;;;;12.13;7.43;;;;;;;;;;5134618;27;20402;-77
2022/10/11 03:26:59;;;;;;;16.10;7.43;;;;;;;;;;5134836;27;20597;-75
2022/10/11 03:29:25;;;;;;;15.83;7.50;;;;;;;;;;5135030;27;20454;-78
2022/10/11 03:31:51;;;;;;;11.27;8.00;;;;;;;;;;5134829;27;20417;-78
2022/10/11 03:34:17;;;;;;;7.77;6.97;;;;;;;;;;5134732;27;20832;-74
2022/10/11 03:36:43;;;;;;;9.17;6.17;;;;;;;;;;5116391;27;20785;-75
2022/10/11 03:39:09;;;;;;;14.73;6.63;;;;;;;;;;5116249;28;20932;-68
2022/10/11 03:41:35;;;;;;;11.93;7.17;;;;;;;;;;5134591;27;20889;-71
2022/10/11 03:44:01;;;;;;;7.50;6.50;;;;;;;;;;5134579;27;20420;-76
2022/10/11 03:46:27;;;;;;;7.70;7.00;;;;;;;;;;5134481;27;20516;-66
2022/10/11 03:48:53;;;;;;;9.40;6.47;;;;;;;;;;5134536;27;20415;-67
2022/10/11 03:51:19;;;;;;;11.17;7.00;;;;;;;;;;5134475;27;20470;-73
2022/10/11 03:53:45;;;;;;;14.63;7.37;;;;;;;;;;5134431;27;20464;-76
2022/10/11 03:56:11;;;;;;;14.20;6.90;;;;;;;;;;5134395;28;20397;-76
2022/10/11 03:58:37;;;;;;;8.30;7.40;;;;;;;;;;5134378;28;20406;-74
2022/10/11 04:01:03;;;;;;;11.93;6.10;;;;;;;;;;5134415;28;20752;-77
2022/10/11 04:03:29;;;;;;;8.93;5.40;;;;;;;;;;5134379;28;20410;-78
2022/10/11 04:05:55;;;;;;;8.80;6.03;;;;;;;;;;5135130;28;20540;-78
2022/10/11 04:08:21;;;;;;;13.77;7.13;;;;;;;;;;5116412;28;20456;-77
2022/10/11 04:10:48;;;;;;;11.50;6.63;;;;;;;;;;5134768;28;20438;-78
2022/10/11 04:13:14;;;;;;;10.67;5.93;;;;;;;;;;5134802;28;20863;-78
2022/10/11 04:15:42;;;;;;;12.10;6.47;;;;;;;;;;5134842;28;20821;-78
2022/10/11 04:18:09;;;;;;;10.73;6.07;;;;;;;;;;5134330;28;20883;-79
2022/10/11 04:20:35;;;;;;;9.30;6.20;;;;;;;;;;5134257;28;20407;-77
2022/10/11 04:23:01;;;;;;;12.23;5.80;;;;;;;;;;5134209;28;20406;-75
2022/10/11 04:25:27;;;;;;;10.57;7.00;;;;;;;;;;5115713;28;20415;-78
2022/10/11 04:27:53;;;;;;;17.77;6.83;;;;;;;;;;5134134;28;20499;-77
2022/10/11 04:30:20;;;;;;;11.47;6.37;;;;;;;;;;5115759;28;20419;-68
2022/10/11 04:32:46;;;;;;;14.07;7.10;;;;;;;;;;5134052;28;20438;-76
2022/10/11 04:35:13;;;;;;;9.23;8.00;;;;;;;;;;5134086;28;20420;-78
2022/10/11 04:37:39;;;;;;;7.90;7.17;;;;;;;;;;5136952;27;20890;-77
2022/10/11 04:40:06;;;;;;;13.83;6.10;;;;;;;;;;5138000;27;20419;-79
2022/10/11 04:42:32;;;;;;;11.47;8.77;;;;;;;;;;5137951;27;20415;-78
2022/10/11 04:44:58;;;;;;;7.60;7.13;;;;;;;;;;5137952;27;20786;-77
2022/10/11 04:47:24;;;;;;;11.07;9.90;;;;;;;;;;5119453;27;20407;-78
2022/10/11 04:49:50;;;;;;;11.47;7.83;;;;;;;;;;5137746;27;20477;-78
2022/10/11 04:52:16;;;;;;;7.87;7.10;;;;;;;;;;5137647;27;20490;-67
2022/10/11 04:54:42;;;;;;;7.77;7.13;;;;;;;;;;5137738;27;20463;-70
2022/10/11 04:57:08;;;;;;;6.53;5.90;;;;;;;;;;5137745;27;20410;-72
2022/10/11 04:59:34;;;;;;;5.03;4.70;;;;;;;;;;5137731;27;20452;-70
2022/10/11 05:02:00;;;;;;;4.20;4.00;;;;;;;;;;5137668;27;20412;-71
2022/10/11 05:04:26;;;;;;;5.60;4.37;;;;;;;;;;5119016;27;20475;-69
2022/10/11 05:06:52;;;;;;;4.00;3.83;;;;;;;;;;5137531;27;20407;-71
2022/10/11 05:09:18;;;;;;;4.07;3.90;;;;;;;;;;5137446;27;20411;-73
2022/10/11 05:11:43;;;;;;;4.20;4.10;;;;;;;;;;5137397;27;20757;-70
2022/10/11 05:14:09;;;;;;;4.77;4.47;;;;;;;;;;5137277;27;20462;-70
2022/10/11 05:16:35;;;;;;;5.57;5.07;;;;;;;;;;5137708;27;20400;-72
2022/10/11 05:19:01;;;;;;;8.57;6.53;;;;;;;;;;5137306;27;20439;-72
2022/10/11 05:21:29;;;;;;;7.73;5.00;;;;;;;;;;5137360;27;20404;-77
2022/10/11 05:23:55;;;;;;;4.20;4.00;;;;;;;;;;5137410;27;20495;-77
2022/10/11 05:26:21;;;;;;;3.87;3.77;;;;;;;;;;5137125;27;20458;-74
2022/10/11 05:28:47;;;;;;;4.20;3.90;;;;;;;;;;5137268;27;20767;-79
2022/10/11 05:31:14;;;;;;;6.03;4.80;;;;;;;;;;5137072;27;20491;-79
2022/10/11 05:33:40;;;;;;;5.40;5.20;;;;;;;;;;5136828;27;20451;-69
2022/10/11 05:36:06;;;;;;;5.77;5.27;;;;;;;;;;5136940;27;20460;-69
2022/10/11 05:38:32;;;;;;;6.50;6.00;;;;;;;;;;5136750;27;20423;-69
2022/10/11 05:40:59;;;;;;;7.43;6.67;;;;;;;;;;5118296;27;20431;-69
2022/10/11 05:43:25;;;;;;;6.00;5.40;;;;;;;;;;5136796;27;20764;-73
2022/10/11 05:45:51;;;;;;;5.20;4.50;;;;;;;;;;5136672;27;20415;-70
2022/10/11 05:48:17;;;;;;;5.40;4.90;;;;;;;;;;5136672;27;20399;-72
2022/10/11 05:50:43;;;;;;;26.47;22.10;;;;;;;;;;5136733;27;20395;-71
2022/10/11 05:53:09;;;;;;;11.50;10.60;;;;;;;;;;5136440;27;20661;-69
2022/10/11 05:55:39;;;;;;;16.90;10.10;;;;;;;;;;5136553;27;20407;-68
2022/10/11 05:58:05;;;;;;;11.50;10.30;;;;;;;;;;5136512;27;20404;-72
2022/10/11 06:00:32;;;;;;;15.77;14.00;;;;;;;;;;5136531;27;20491;-70
2022/10/11 06:02:58;;;;;;;15.23;11.30;;;;;;;;;;5136342;27;20931;-68
2022/10/11 06:05:24;;;;;;;13.87;10.40;;;;;;;;;;5136114;27;20464;-68
2022/10/11 06:07:50;;;;;;;43.80;33.53;;;;;;;;;;5117748;27;20798;-69
2022/10/11 06:10:16;;;;;;;25.77;22.87;;;;;;;;;;5136105;27;20403;-74
2022/10/11 06:12:42;;;;;;;18.10;15.00;;;;;;;;;;5136168;27;20418;-75
2022/10/11 06:15:09;;;;;;;11.67;10.50;;;;;;;;;;5117520;27;20501;-77
2022/10/11 06:17:35;;;;;;;8.17;4.50;;;;;;;;;;5136048;27;20393;-72
2022/10/11 06:20:02;;;;;;;11.13;4.80;;;;;;;;;;5136140;27;20499;-74
2022/10/11 06:22:28;;;;;;;9.40;5.53;;;;;;;;;;5135913;27;20429;-69
2022/10/11 06:24:54;;;;;;;7.93;5.03;;;;;;;;;;5135984;27;20434;-74
2022/10/11 06:27:20;;;;;;;19.20;6.07;;;;;;;;;;5135865;27;21034;-71
2022/10/11 06:29:46;;;;;;;9.33;7.30;;;;;;;;;;5136007;27;20404;-74
2022/10/11 06:32:12;;;;;;;18.67;7.57;;;;;;;;;;5135791;27;20461;-69
2022/10/11 06:34:38;;;;;;;18.83;12.37;;;;;;;;;;5135655;27;20977;-69
2022/10/11 06:37:04;;;;;;;13.60;11.37;;;;;;;;;;5135718;27;20428;-70
2022/10/11 06:39:30;;;;;;;12.80;10.63;;;;;;;;;;5135632;27;20427;-73
2022/10/11 06:41:56;;;;;;;18.27;10.40;;;;;;;;;;5135615;27;20974;-69
2022/10/11 06:44:22;;;;;;;12.73;9.37;;;;;;;;;;5135550;27;20407;-70
2022/10/11 06:46:48;;;;;;;10.50;9.20;;;;;;;;;;5117058;27;20408;-71
2022/10/11 06:49:14;;;;;;;14.20;9.43;;;;;;;;;;5135494;27;20415;-69
2022/10/11 06:51:40;;;;;;;15.60;9.70;;;;;;;;;;5135346;27;20400;-69
2022/10/11 06:54:06;;;;;;;16.67;9.50;;;;;;;;;;5132629;27;20961;-70
2022/10/11 06:56:32;;;;;;;10.83;9.77;;;;;;;;;;5132435;27;20413;-72
2022/10/11 06:58:58;;;;;;;21.37;10.23;;;;;;;;;;5131919;27;20432;-71
2022/10/11 07:01:25;;;;;;;23.90;9.63;;;;;;;;;;5132143;27;20965;-70
2022/10/11 07:03:52;;;;;;;27.60;17.47;;;;;;;;;;5132078;27;20417;-70
2022/10/11 07:06:19;;;;;;;13.07;8.50;;;;;;;;;;5114033;27;20934;-71
2022/10/11 07:08:46;;;;;;;28.20;9.70;;;;;;;;;;5130303;27;20421;-69
2022/10/11 07:11:16;;;;;;;26.90;10.30;;;;;;;;;;5132190;27;20444;-70
2022/10/11 07:13:42;;;;;;;12.80;10.67;;;;;;;;;;5132231;27;20477;-74
2022/10/11 07:16:10;;;;;;;13.50;10.80;;;;;;;;;;5132223;27;20420;-71
2022/10/11 07:18:36;;;;;;;31.27;11.90;;;;;;;;;;5132015;27;20410;-71
2022/10/11 07:21:07;;;;;;;25.30;11.77;;;;;;;;;;5132954;27;20432;-74
2022/10/11 07:23:33;;;;;;;29.67;12.10;;;;;;;;;;5134870;27;20766;-71
2022/10/11 07:26:00;;;;;;;24.17;12.33;;;;;;;;;;5134741;27;20424;-71
2022/10/11 07:28:27;;;;;;;21.07;12.50;;;;;;;;;;5116350;27;20406;-71
2022/10/11 07:30:54;;;;;;;21.83;14.17;;;;;;;;;;5134809;27;20875;-73
2022/10/11 07:33:20;;;;;;;22.20;12.07;;;;;;;;;;5134657;27;20457;-71
2022/10/11 07:35:46;;;;;;;20.93;13.10;;;;;;;;;;5116180;27;20430;-73
2022/10/11 07:38:12;;;;;;;31.90;23.13;;;;;;;;;;5134608;27;20402;-74
2022/10/11 07:40:42;;;;;;;22.90;16.40;;;;;;;;;;5134619;27;20910;-72
2022/10/11 07:43:08;;;;;;;37.33;16.30;;;;;;;;;;5134561;27;20767;-72
2022/10/11 07:45:36;;;;;;;28.37;15.10;;;;;;;;;;5134496;27;20407;-72
2022/10/11 07:48:02;;;;;;;27.90;17.47;;;;;;;;;;5130913;27;20490;-72
2022/10/11 07:50:28;;;;;;;31.77;18.60;;;;;;;;;;5131695;27;20820;-72
2022/10/11 07:52:54;;;;;;;36.47;18.80;;;;;;;;;;5131670;27;20461;-72
2022/10/11 07:55:20;;;;;;;34.03;20.50;;;;;;;;;;5131712;27;20440;-73
2022/10/11 07:57:46;;;;;;;40.17;21.43;;;;;;;;;;5113204;28;20430;-71
2022/10/11 08:00:12;;;;;;;40.53;21.87;;;;;;;;;;5131893;28;20461;-72
2022/10/11 08:02:38;;;;;;;37.03;22.60;;;;;;;;;;5130100;28;20797;-74
2022/10/11 08:05:04;;;;;;;33.23;20.50;;;;;;;;;;5131279;28;20646;-71
2022/10/11 08:07:30;;;;;;;35.53;22.10;;;;;;;;;;5131520;28;20439;-72
2022/10/11 08:09:56;;;;;;;41.17;24.17;;;;;;;;;;5131937;28;20428;-70
2022/10/11 08:12:22;;;;;;;44.27;24.40;;;;;;;;;;5111584;27;20540;-73
2022/10/11 08:14:48;;;;;;;41.73;23.73;;;;;;;;;;5135639;27;20536;-75
2022/10/11 08:17:14;;;;;;;39.13;23.60;;;;;;;;;;5135950;27;20428;-71
2022/10/11 08:19:40;;;;;;;42.03;27.50;;;;;;;;;;5135991;27;20405;-70
2022/10/11 08:22:06;;;;;;;51.30;27.00;;;;;;;;;;5135514;27;20921;-71
2022/10/11 08:24:33;;;;;;;44.60;26.67;;;;;;;;;;5135491;27;20838;-71
2022/10/11 08:26:59;;;;;;;42.13;27.20;;;;;;;;;;5135588;27;20455;-72
2022/10/11 08:29:25;;;;;;;44.03;28.60;;;;;;;;;;5135391;27;20815;-72
2022/10/11 08:31:51;;;;;;;45.00;29.03;;;;;;;;;;5135487;27;20432;-72
2022/10/11 08:34:17;;;;;;;49.37;28.20;;;;;;;;;;5116930;27;20857;-72
2022/10/11 08:36:43;;;;;;;52.77;29.77;;;;;;;;;;5135566;27;20456;-73
2022/10/11 08:39:09;;;;;;;44.00;29.80;;;;;;;;;;5135267;27;20493;-72
2022/10/11 08:41:45;;;;;;;43.17;29.07;;;;;;;;;;5135143;27;20421;-74
2022/10/11 08:44:11;;;;;;;44.93;28.70;;;;;;;;;;5133858;27;20501;-77
2022/10/11 08:46:38;;;;;;;52.97;29.07;;;;;;;;;;5132135;27;20954;-74
2022/10/11 08:49:05;;;;;;;52.03;29.50;;;;;;;;;;5132772;27;20422;-79
2022/10/11 08:51:35;;;;;;;57.63;31.00;;;;;;;;;;5132976;27;20930;-76
2022/10/11 08:54:01;;;;;;;57.87;30.17;;;;;;;;;;5135124;27;20500;-77
2022/10/11 08:56:27;;;;;;;53.10;30.10;;;;;;;;;;5132961;27;20456;-77
2022/10/11 08:58:55;;;;;;;51.23;31.47;;;;;;;;;;5114290;27;20831;-76
2022/10/11 09:01:23;;;;;;;58.13;32.50;;;;;;;;;;5132727;27;20425;-75
2022/10/11 09:03:49;;;;;;;48.57;30.73;;;;;;;;;;5134311;27;20457;-75
2022/10/11 09:06:27;;;;;;;51.33;31.47;;;;;;;;;;5129912;28;20575;-74
2022/10/11 09:09:02;;;;;;;43.80;29.30;;;;;;;;;;5133375;28;20430;-77
2022/10/11 09:11:36;;;;;;;49.10;28.97;;;;;;;;;;5113123;28;20434;-78
2022/10/11 09:14:02;;;;;;;51.90;29.57;;;;;;;;;;5113464;28;20485;-70
2022/10/11 09:16:42;;;;;;;45.17;30.07;;;;;;;;;;5133569;28;20505;-77
2022/10/11 09:19:26;;;;;;;60.17;30.00;;;;;;;;;;5133407;28;20414;-77
2022/10/11 09:22:05;;;;;;;45.70;29.37;;;;;;;;;;5134806;27;20426;-74
2022/10/11 09:24:34;;;;;;;52.60;30.73;;;;;;;;;;5117537;28;20457;-72
2022/10/11 09:27:06;;;;;;;50.00;31.13;;;;;;;;;;5135866;28;20433;-74
2022/10/11 09:29:38;;;;;;;48.93;33.50;;;;;;;;;;5135821;28;20406;-76
2022/10/11 09:32:11;;;;;;;61.67;36.77;;;;;;;;;;5135832;28;20424;-76
2022/10/11 09:34:37;;;;;;;44.00;30.13;;;;;;;;;;5135683;28;20982;-74
2022/10/11 09:37:10;;;;;;;55.10;31.63;;;;;;;;;;5135791;28;20904;-75
2022/10/11 09:39:38;;;;;;;51.43;31.70;;;;;;;;;;5135699;28;20967;-77
2022/10/11 09:42:08;;;;;;;65.10;32.63;;;;;;;;;;5135525;28;20500;-76
2022/10/11 09:44:36;;;;;;;45.27;30.67;;;;;;;;;;5117140;28;20430;-78
2022/10/11 09:47:03;;;;;;;55.00;31.00;;;;;;;;;;5135538;28;20481;-76
2022/10/11 09:49:31;;;;;;;45.10;31.33;;;;;;;;;;5135567;28;20459;-75
2022/10/11 09:51:59;;;;;;;41.40;30.70;;;;;;;;;;5135455;28;20402;-74
2022/10/11 09:54:42;;;;;;;47.87;30.00;;;;;;;;;;5135436;28;20511;-77
2022/10/11 09:57:22;;;;;;;50.50;31.63;;;;;;;;;;5135332;28;20448;-77
2022/10/11 10:00:00;;;;;;;51.90;32.30;;;;;;;;;;5135385;28;20893;-76
2022/10/11 10:02:27;;;;;;;46.00;30.87;;;;;;;;;;5117030;28;20426;-74
2022/10/11 10:04:54;;;;;;;36.93;31.00;;;;;;;;;;5098340;27;1056981;-73
2022/10/11 10:07:20;;;;;;;47.17;31.27;;;;;;;;;;5136210;27;20175;-72
2022/10/11 10:09:46;;;;;;;48.53;32.50;;;;;;;;;;5136290;27;20432;-77
2022/10/11 10:12:13;;;;;;;57.63;30.70;;;;;;;;;;5117735;27;20514;-77
2022/10/11 10:14:40;;;;;;;48.93;30.23;;;;;;;;;;5136040;27;20461;-76
2022/10/11 10:17:13;;;;;;;70.97;45.10;;;;;;;;;;5136094;27;20415;-72
2022/10/11 10:19:41;;;;;;;40.83;27.97;;;;;;;;;;5136143;27;20405;-75
2022/10/11 10:22:16;;;;;;;40.80;29.00;;;;;;;;;;5136118;27;20483;-75
2022/10/11 10:24:43;;;;;;;39.03;29.80;;;;;;;;;;5136054;27;20436;-76
2022/10/11 10:27:17;;;;;;;37.90;28.00;;;;;;;;;;5117525;27;20467;-78
2022/10/11 10:29:44;;;;;;;40.70;28.07;;;;;;;;;;5135850;27;20493;-76
2022/10/11 10:32:12;;;;;;;36.00;27.30;;;;;;;;;;5135360;27;20462;-77
2022/10/11 10:34:49;;;;;;;35.33;26.97;;;;;;;;;;5134164;27;20557;-73
2022/10/11 10:37:23;;;;;;;41.13;27.37;;;;;;;;;;5135373;27;20410;-72
2022/10/11 10:39:51;;;;;;;33.03;25.43;;;;;;;;;;5135201;27;20963;-72
2022/10/11 10:42:18;;;;;;;41.70;27.60;;;;;;;;;;5135191;27;20422;-76
2022/10/11 10:44:46;;;;;;;34.27;25.60;;;;;;;;;;5135129;27;20981;-77
2022/10/11 10:47:14;;;;;;;34.10;22.97;;;;;;;;;;5135100;27;20898;-74
2022/10/11 10:49:44;;;;;;;28.60;22.00;;;;;;;;;;5135287;27;20460;-75
2022/10/11 10:52:25;;;;;;;35.07;22.07;;;;;;;;;;5134795;27;20451;-75
2022/10/11 10:54:53;;;;;;;28.30;21.53;;;;;;;;;;5134718;27;20557;-71
2022/10/11 10:57:22;;;;;;;33.57;22.10;;;;;;;;;;5135131;27;20414;-72
2022/10/11 11:00:07;;;;;;;29.00;21.00;;;;;;;;;;5135216;27;20414;-74
2022/10/11 11:02:33;;;;;;;24.00;19.03;;;;;;;;;;5134698;27;20439;-72
2022/10/11 11:05:03;;;;;;;25.53;19.00;;;;;;;;;;5134853;27;20458;-71
2022/10/11 11:07:32;;;;;;;29.73;19.13;;;;;;;;;;5134981;27;20403;-70
2022/10/11 11:10:01;;;;;;;29.00;19.80;;;;;;;;;;5135044;27;20405;-71
2022/10/11 11:12:44;;;;;;;29.10;18.50;;;;;;;;;;5134821;27;20421;-73
2022/10/11 11:15:26;;;;;;;28.40;17.10;;;;;;;;;;5134502;27;20495;-70
2022/10/11 11:18:07;;;;;;;23.47;16.57;;;;;;;;;;5134810;27;20399;-71
2022/10/11 11:20:41;;;;;;;32.37;16.90;;;;;;;;;;5134848;27;20453;-71
2022/10/11 11:23:19;;;;;;;21.20;17.17;;;;;;;;;;5116121;27;20901;-73
2022/10/11 11:25:48;;;;;;;33.80;20.33;;;;;;;;;;5116064;27;20464;-72
2022/10/11 11:28:38;;;;;;;29.80;16.43;;;;;;;;;;5134439;27;20888;-72
2022/10/11 11:31:15;;;;;;;24.43;15.60;;;;;;;;;;5134386;27;20419;-71
2022/10/11 11:33:52;;;;;;;21.40;14.40;;;;;;;;;;5134464;27;20463;-71
2022/10/11 11:36:44;;;;;;;26.97;14.27;;;;;;;;;;5134556;27;20404;-71
2022/10/11 11:39:16;;;;;;;17.97;12.77;;;;;;;;;;5134168;27;20486;-72
2022/10/11 11:41:49;;;;;;;14.83;11.60;;;;;;;;;;5115864;27;20505;-72
2022/10/11 11:44:19;;;;;;;22.13;11.27;;;;;;;;;;5134501;27;20414;-71
2022/10/11 11:47:11;;;;;;;23.73;12.50;;;;;;;;;;5115680;28;20444;-71
2022/10/11 11:49:39;;;;;;;14.10;10.33;;;;;;;;;;5095263;27;20428;-75
2022/10/11 11:52:07;;;;;;;10.97;8.90;;;;;;;;;;5116031;27;20402;-71
2022/10/11 11:54:44;;;;;;;13.77;9.90;;;;;;;;;;5134317;27;20965;-73
2022/10/11 11:57:36;;;;;;;20.27;9.57;;;;;;;;;;5134183;27;20403;-76
2022/10/11 12:00:06;;;;;;;16.57;9.00;;;;;;;;;;5130528;28;20431;-75
2022/10/11 12:02:37;;;;;;;8.87;7.97;;;;;;;;;;5134283;28;20516;-72
2022/10/11 12:05:05;;;;;;;13.13;8.17;;;;;;;;;;5115690;28;20866;-75
2022/10/11 12:07:31;;;;;;;11.30;8.60;;;;;;;;;;5134223;28;20403;-70
2022/10/11 12:10:15;;;;;;;14.20;8.70;;;;;;;;;;5134267;28;20456;-69
2022/10/11 12:12:41;;;;;;;8.90;7.80;;;;;;;;;;5134200;28;20922;-77
2022/10/11 12:15:19;;;;;;;11.27;7.23;;;;;;;;;;5134040;28;20575;-72
2022/10/11 12:17:55;;;;;;;16.97;8.43;;;;;;;;;;5134369;28;20886;-71
2022/10/11 12:20:25;;;;;;;16.10;8.33;;;;;;;;;;5134132;28;20513;-75
2022/10/11 12:22:51;;;;;;;8.70;7.40;;;;;;;;;;5115781;28;20411;-75
2022/10/11 12:25:27;;;;;;;16.90;7.70;;;;;;;;;;5134187;28;20978;-75
2022/10/11 12:27:55;;;;;;;14.37;7.80;;;;;;;;;;5134161;28;20421;-78
2022/10/11 12:30:39;;;;;;;12.47;8.07;;;;;;;;;;5134089;28;20404;-76
2022/10/11 12:33:12;;;;;;;17.60;7.60;;;;;;;;;;5134061;28;20402;-75
2022/10/11 12:35:41;;;;;;;14.93;8.10;;;;;;;;;;5134441;28;20415;-77
2022/10/11 12:38:13;;;;;;;13.00;8.27;;;;;;;;;;5116024;28;20940;-78
2022/10/11 12:40:44;;;;;;;17.00;8.20;;;;;;;;;;5115530;28;20422;-77
2022/10/11 12:43:13;;;;;;;12.23;8.53;;;;;;;;;;5134033;28;20427;-77
2022/10/11 12:45:40;;;;;;;16.73;12.20;;;;;;;;;;5133984;28;20406;-78
2022/10/11 12:48:24;;;;;;;18.10;8.30;;;;;;;;;;5134044;28;20400;-77
2022/10/11 12:50:50;;;;;;;15.97;8.20;;;;;;;;;;5133906;28;20589;-79
2022/10/11 12:53:16;;;;;;;15.50;8.03;;;;;;;;;;5133855;28;20427;-77
2022/10/11 12:55:57;;;;;;;18.53;8.20;;;;;;;;;;5133842;28;20425;-75
2022/10/11 12:58:23;;;;;;;15.27;8.47;;;;;;;;;;5136069;27;20400;-79
2022/10/11 13:00:55;;;;;;;14.40;7.77;;;;;;;;;;5137661;27;20405;-79
2022/10/11 13:03:40;;;;;;;16.10;7.67;;;;;;;;;;5137446;27;20400;-78
2022/10/11 13:06:10;;;;;;;12.43;8.83;;;;;;;;;;5137356;27;20561;-77
2022/10/11 13:08:39;;;;;;;20.13;8.37;;;;;;;;;;5137457;27;20757;-75
2022/10/11 13:11:07;;;;;;;15.03;8.10;;;;;;;;;;5137420;27;20417;-74
2022/10/11 13:13:42;;;;;;;12.97;8.27;;;;;;;;;;5137296;27;20556;-74
2022/10/11 13:16:09;;;;;;;10.53;7.50;;;;;;;;;;5137251;27;20411;-74
2022/10/11 13:18:35;;;;;;;15.90;7.87;;;;;;;;;;5137309;27;20894;-74
2022/10/11 13:21:01;;;;;;;13.23;7.20;;;;;;;;;;5137232;27;20400;-74
2022/10/11 13:23:28;;;;;;;17.03;7.53;;;;;;;;;;5118860;27;20416;-75
2022/10/11 13:25:55;;;;;;;21.83;7.80;;;;;;;;;;5137138;27;20499;-75
2022/10/11 13:28:22;;;;;;;13.90;7.13;;;;;;;;;;5137089;27;20416;-75
2022/10/11 13:30:49;;;;;;;12.07;7.80;;;;;;;;;;5137061;27;20765;-76
2022/10/11 13:33:24;;;;;;;10.07;7.63;;;;;;;;;;5136935;27;20490;-76
2022/10/11 13:35:51;;;;;;;18.67;8.07;;;;;;;;;;5136934;27;20426;-78
2022/10/11 13:38:22;;;;;;;15.40;7.27;;;;;;;;;;5136900;27;20406;-76
2022/10/11 13:40:48;;;;;;;10.30;6.50;;;;;;;;;;5136784;27;20936;-75
2022/10/11 13:43:15;;;;;;;16.27;8.13;;;;;;;;;;5137080;27;20408;-75
2022/10/11 13:45:41;;;;;;;14.57;7.30;;;;;;;;;;5136767;27;20490;-75
2022/10/11 13:48:13;;;;;;;14.80;6.40;;;;;;;;;;5136769;27;20442;-77
2022/10/11 13:50:40;;;;;;;12.57;6.70;;;;;;;;;;5136646;27;20405;-77
2022/10/11 13:53:09;;;;;;;13.37;6.37;;;;;;;;;;5136581;27;20432;-76
2022/10/11 13:55:36;;;;;;;14.53;7.10;;;;;;;;;;5136514;27;20412;-76
2022/10/11 13:58:08;;;;;;;19.67;6.40;;;;;;;;;;5118015;27;20434;-73
2022/10/11 14:00:37;;;;;;;19.27;7.50;;;;;;;;;;5136245;27;20408;-75
2022/10/11 14:03:11;;;;;;;10.13;6.63;;;;;;;;;;5136415;27;20458;-74
2022/10/11 14:05:42;;;;;;;18.60;7.57;;;;;;;;;;5117705;27;20479;-75
2022/10/11 14:08:20;;;;;;;15.17;7.70;;;;;;;;;;5136094;27;20907;-75
2022/10/11 14:10:46;;;;;;;13.77;6.90;;;;;;;;;;5135615;27;20417;-73
2022/10/11 14:13:33;;;;;;;13.17;6.20;;;;;;;;;;5136126;27;20424;-72
2022/10/11 14:16:06;;;;;;;8.43;6.33;;;;;;;;;;5135891;27;20450;-72
2022/10/11 14:18:36;;;;;;;13.07;6.63;;;;;;;;;;5135606;27;20487;-69
2022/10/11 14:21:20;;;;;;;18.03;6.90;;;;;;;;;;5135973;27;20414;-69
2022/10/11 14:23:49;;;;;;;24.87;6.63;;;;;;;;;;5136110;27;20493;-70
2022/10/11 14:26:16;;;;;;;12.63;6.10;;;;;;;;;;5135877;27;20552;-71
2022/10/11 14:28:42;;;;;;;14.87;7.70;;;;;;;;;;5135779;27;20417;-72
2022/10/11 14:31:09;;;;;;;16.60;7.30;;;;;;;;;;5135928;27;20407;-73
2022/10/11 14:33:35;;;;;;;11.60;7.00;;;;;;;;;;5135724;27;20455;-68
2022/10/11 14:36:01;;;;;;;14.30;6.70;;;;;;;;;;5135747;27;20419;-69
2022/10/11 14:38:27;;;;;;;22.00;7.43;;;;;;;;;;5135741;27;20407;-72